Emu Arrow — C6OR4 — position and weather

sailwx.info

Track history (hours):
 
Tides and Currents Weather Stations Pressure Air Temp Water Temp Dewpoint Dewpoint Depression Visibility Wind Speed Wind Dir Waves Ship Positions

Emu Arrow

Last reported at 2018-Apr-20 22:26 UTC. Time now 2018-Apr-25 02:56 UTC.
Position N 35°48' E 125°02'.

Length 200 m; draft 7.8 m.

Type: Cargo ship. MMSI: 309805000.

Date/timePositionNaut miles runAvg speedWind from/ knotsBaromVisibWave heightAir tempDewpointWater temp
2018-Apr-20 22:26N 35°48' E 125°02'614.0
2018-Apr-20 21:58N 35°42' E 124°59'614.1
2018-Apr-20 21:31N 35°36' E 124°57'714.2
2018-Apr-20 21:00N 35°29' E 124°53'1114.2
2018-Apr-20 20:16N 35°19' E 124°48'414.3
2018-Apr-20 20:00N 35°16' E 124°47'714.1
2018-Apr-20 19:31N 35°10' E 124°44'714.0
2018-Apr-20 19:00N 35°03' E 124°41'10612.0
2018-Apr-20 10:13N 33°28' E 123°45'13512.5
2018-Apr-19 23:23N 31°19' E 122°60'2712.7
2018-Apr-19 21:13N 31°05' E 122°32'1 2.2
2018-Apr-19 20:38N 31°06' E 122°30'412.5
2018-Apr-19 20:19N 31°06' E 122°26'514.4
2018-Apr-19 19:57N 31°06' E 122°19'713.9
2018-Apr-19 19:29N 31°09' E 122°13'812.7
2018-Apr-19 18:52N 31°14' E 122°06'511.6
2018-Apr-19 18:24N 31°15' E 121°59'410.4
2018-Apr-19 18:00N 31°16' E 121°55'510.1
2018-Apr-19 17:30N 31°17' E 121°49'14 7.9
2018-Apr-19 15:48N 31°23' E 121°35'5 7.9
2018-Apr-19 15:08N 31°26' E 121°30'2 7.2
2018-Apr-19 14:50N 31°27' E 121°28'411.0
2018-Apr-19 14:30N 31°30' E 121°25'611.5
2018-Apr-19 14:00N 31°33' E 121°19'611.2
2018-Apr-19 13:30N 31°38' E 121°15'510.6
2018-Apr-19 13:01N 31°41' E 121°10'510.0
2018-Apr-19 12:30N 31°44' E 121°06'6 9.9
2018-Apr-19 11:54N 31°47' E 120°60'4 9.4
2018-Apr-19 11:30N 31°48' E 120°55'18 0.5
2018-Apr-17 21:35N 31°59' E 120°39'0 0.0
2018-Apr-17 21:30N 31°59' E 120°39'28 2.2
2018-Apr-17 08:45N 31°44' E 121°07'312.9
2018-Apr-17 08:29N 31°42' E 121°10'510.0
2018-Apr-17 08:00N 31°39' E 121°14'713.4
2018-Apr-17 07:30N 31°34' E 121°19'5 9.4
2018-Apr-17 07:00N 31°30' E 121°23'0 0.0
2018-Apr-17 06:29N 31°30' E 121°23'0 0.0
2018-Apr-17 05:59N 31°30' E 121°23'0 0.0
2018-Apr-17 05:26N 31°30' E 121°23'0 0.0
2018-Apr-17 04:56N 31°30' E 121°23'0 0.0
2018-Apr-17 04:26N 31°30' E 121°23'0 0.0
2018-Apr-17 03:56N 31°30' E 121°23'0 0.0
2018-Apr-17 03:26N 31°30' E 121°23'0 0.0
2018-Apr-17 02:56N 31°30' E 121°23'0 0.0
2018-Apr-17 02:26N 31°30' E 121°23'0 0.0
2018-Apr-17 01:59N 31°30' E 121°23'0 0.0
2018-Apr-17 01:29N 31°30' E 121°23'0 0.0
2018-Apr-17 01:00N 31°30' E 121°23'0 0.0
2018-Apr-17 00:29N 31°30' E 121°23'0 0.0
2018-Apr-16 23:59N 31°30' E 121°23'0 0.0
2018-Apr-16 23:26N 31°30' E 121°23'0 0.0
2018-Apr-16 22:59N 31°30' E 121°23'0 0.0
2018-Apr-16 22:23N 31°30' E 121°23'0 0.0
2018-Apr-16 21:59N 31°30' E 121°23'0 0.0
2018-Apr-16 21:23N 31°30' E 121°23'0 0.0
2018-Apr-16 20:56N 31°30' E 121°23'0 0.0
2018-Apr-16 20:26N 31°30' E 121°23'0 0.0
2018-Apr-16 19:56N 31°30' E 121°23'0 0.0
2018-Apr-16 19:26N 31°30' E 121°23'0 0.0
2018-Apr-16 18:59N 31°30' E 121°23'0 0.0
2018-Apr-16 18:26N 31°30' E 121°23'0 0.0
2018-Apr-16 17:59N 31°30' E 121°23'0 0.0
2018-Apr-16 17:26N 31°30' E 121°23'0 0.0
2018-Apr-16 16:56N 31°30' E 121°23'0 0.0
2018-Apr-16 16:26N 31°30' E 121°23'0 0.0
2018-Apr-16 15:59N 31°30' E 121°23'0 0.0
2018-Apr-16 15:26N 31°30' E 121°23'0 0.0
2018-Apr-16 14:59N 31°30' E 121°23'0 0.0
2018-Apr-16 14:26N 31°30' E 121°23'0 0.0
2018-Apr-16 13:56N 31°30' E 121°23'0 0.0
2018-Apr-16 13:26N 31°30' E 121°23'0 0.0
2018-Apr-16 12:53N 31°30' E 121°23'0 0.0
2018-Apr-16 12:14N 31°30' E 121°23'0 0.0
2018-Apr-16 11:50N 31°30' E 121°23'0 0.0
2018-Apr-16 11:26N 31°30' E 121°23'0 0.0
2018-Apr-16 10:56N 31°30' E 121°23'0 0.0
2018-Apr-16 09:50N 31°30' E 121°23'0 0.0
2018-Apr-16 08:38N 31°30' E 121°23'0 0.0
2018-Apr-16 08:29N 31°30' E 121°23'0 0.0
2018-Apr-16 07:56N 31°30' E 121°23'0 0.0
2018-Apr-16 07:20N 31°30' E 121°23'0 0.0
2018-Apr-16 06:56N 31°30' E 121°23'0 0.0
2018-Apr-16 05:44N 31°30' E 121°23'0 0.0
2018-Apr-16 05:26N 31°30' E 121°23'0 0.0
2018-Apr-16 04:56N 31°30' E 121°23'0 0.0
2018-Apr-16 03:56N 31°30' E 121°23'0 0.0
2018-Apr-16 03:26N 31°30' E 121°23'0 0.0
2018-Apr-16 02:59N 31°30' E 121°23'0 0.0
2018-Apr-16 01:59N 31°30' E 121°23'0 0.0
2018-Apr-16 01:29N 31°30' E 121°23'0 0.0
2018-Apr-16 00:56N 31°30' E 121°23'0 0.0
2018-Apr-15 23:38N 31°30' E 121°23'0 0.0
2018-Apr-15 23:26N 31°30' E 121°23'0 0.0
2018-Apr-15 22:56N 31°30' E 121°23'0 0.0
2018-Apr-15 21:35N 31°30' E 121°23'0 0.0
2018-Apr-15 21:29N 31°30' E 121°23'0 0.0
2018-Apr-15 20:56N 31°30' E 121°23'0 0.0
2018-Apr-15 20:23N 31°30' E 121°23'0 0.0
2018-Apr-15 19:59N 31°30' E 121°23'0 0.0
2018-Apr-15 19:26N 31°30' E 121°23'1 1.5
2018-Apr-15 19:00N 31°30' E 121°23'3 6.4
2018-Apr-15 18:29N 31°28' E 121°27'4 7.8
2018-Apr-15 17:59N 31°26' E 121°30'4 8.4
2018-Apr-15 17:30N 31°24' E 121°34'6 8.6
2018-Apr-15 16:49N 31°21' E 121°40'3 7.7
2018-Apr-15 16:23N 31°18' E 121°43'4 9.4
2018-Apr-15 15:56N 31°15' E 121°46'911.7
2018-Apr-15 15:12N 31°09' E 121°53'312.0
2018-Apr-15 14:58N 31°07' E 121°56'712.6
2018-Apr-15 14:25N 31°04' E 122°03'613.9
2018-Apr-15 14:00N 31°03' E 122°10'6 9.8
2018-Apr-15 13:21N 31°03' E 122°18'3 9.5
2018-Apr-15 13:00N 31°02' E 122°21'5 9.7
2018-Apr-15 12:30N 31°01' E 122°27'5 9.4
2018-Apr-15 12:00N 30°60' E 122°32'5 9.7
2018-Apr-15 11:30N 30°60' E 122°38'5 9.5
2018-Apr-15 11:00N 31°02' E 122°42'611.2
2018-Apr-15 10:30N 31°07' E 122°46'312 7.8
2018-Apr-13 18:41N 35°59' E 120°31'611.2
2018-Apr-13 18:11N 36°00' E 120°25'311.0
2018-Apr-13 17:55N 36°01' E 120°21'510.2
2018-Apr-13 17:27N 36°02' E 120°15'4 3.4
2018-Apr-13 16:17N 35°60' E 120°11'0 0.0
2018-Apr-13 15:25N 35°60' E 120°11'0 0.0
2018-Apr-13 13:52N 35°60' E 120°11'0 0.0
2018-Apr-13 13:13N 35°60' E 120°11'0 0.0
2018-Apr-13 12:58N 35°60' E 120°11'0 0.0
2018-Apr-13 11:19N 35°60' E 120°11'0 0.0
2018-Apr-13 10:25N 35°60' E 120°11'0 0.0
2018-Apr-13 09:49N 35°60' E 120°11'0 0.0
2018-Apr-13 09:28N 35°60' E 120°11'0 0.0
2018-Apr-13 08:49N 35°60' E 120°11'0 0.0
2018-Apr-13 08:16N 35°60' E 120°11'0 0.0
2018-Apr-13 07:58N 35°60' E 120°11'0 0.0
2018-Apr-13 06:56N 35°60' E 120°11'0 0.0
2018-Apr-13 06:19N 35°60' E 120°11'0 0.0
2018-Apr-13 05:07N 35°60' E 120°11'0 0.0
2018-Apr-13 04:10N 35°60' E 120°11'0 0.0
2018-Apr-13 03:52N 35°60' E 120°11'0 0.0
2018-Apr-13 03:10N 35°60' E 120°11'0 0.0
2018-Apr-13 02:22N 35°60' E 120°11'0 0.0
2018-Apr-13 01:49N 35°60' E 120°11'0 0.0
2018-Apr-13 01:13N 35°60' E 120°11'0 0.0
2018-Apr-13 00:55N 35°60' E 120°11'0 0.0
2018-Apr-12 23:10N 35°60' E 120°11'0 0.0
2018-Apr-12 22:53N 35°60' E 120°11'0 0.0
2018-Apr-12 22:16N 35°60' E 120°11'0 0.0
2018-Apr-12 21:43N 35°60' E 120°11'0 0.0
2018-Apr-12 21:19N 35°60' E 120°11'0 0.0
2018-Apr-12 20:25N 35°60' E 120°11'0 0.0
2018-Apr-12 19:49N 35°60' E 120°11'0 0.0
2018-Apr-12 19:13N 35°60' E 120°11'0 0.0
2018-Apr-12 18:55N 35°60' E 120°11'0 0.0
2018-Apr-12 18:19N 35°60' E 120°11'0 0.0
2018-Apr-12 17:13N 35°60' E 120°11'0 0.0
2018-Apr-12 16:19N 35°60' E 120°11'0 0.0
2018-Apr-12 15:19N 35°60' E 120°11'0 0.0
2018-Apr-12 14:56N 35°60' E 120°11'0 0.0
2018-Apr-12 14:16N 35°60' E 120°11'0 0.0
2018-Apr-12 13:50N 35°60' E 120°11'0 0.0
2018-Apr-12 13:13N 35°60' E 120°11'0 0.0
2018-Apr-12 12:55N 35°60' E 120°11'0 0.0
2018-Apr-12 12:22N 35°60' E 120°11'0 0.0
2018-Apr-12 11:46N 35°60' E 120°11'0 0.0
2018-Apr-12 11:25N 35°60' E 120°11'0 0.0
2018-Apr-12 10:52N 35°60' E 120°11'0 0.0
2018-Apr-12 10:16N 35°60' E 120°11'0 0.0
2018-Apr-12 09:38N 35°60' E 120°11'0 0.0
2018-Apr-12 08:46N 35°60' E 120°11'0 0.0
2018-Apr-12 08:25N 35°60' E 120°11'0 0.0
2018-Apr-12 08:00N 35°60' E 120°11'0 0.0
2018-Apr-12 07:10N 35°60' E 120°11'0 0.0
2018-Apr-12 06:55N 35°60' E 120°11'0 0.0
2018-Apr-12 05:13N 35°60' E 120°11'0 0.0
2018-Apr-12 04:55N 35°60' E 120°11'0 0.0
2018-Apr-12 04:19N 35°60' E 120°11'0 0.0
2018-Apr-12 03:58N 35°60' E 120°11'0 0.0
2018-Apr-12 02:22N 35°60' E 120°11'0 0.0
2018-Apr-12 01:43N 35°60' E 120°11'0 0.0
2018-Apr-12 01:28N 35°60' E 120°11'0 0.0
2018-Apr-12 00:49N 35°60' E 120°11'0 0.0
2018-Apr-12 00:13N 35°60' E 120°11'0 0.0
2018-Apr-11 22:16N 35°60' E 120°11'0 0.0
2018-Apr-11 21:25N 35°60' E 120°11'0 0.0
2018-Apr-11 20:40N 35°60' E 120°11'0 0.0
2018-Apr-11 19:49N 35°60' E 120°11'0 0.0
2018-Apr-11 19:25N 35°60' E 120°11'0 0.0
2018-Apr-11 18:47N 35°60' E 120°11'0 0.0
2018-Apr-11 18:28N 35°60' E 120°11'0 0.0
2018-Apr-11 17:52N 35°60' E 120°11'0 0.0
2018-Apr-11 16:45N 35°60' E 120°11'0 0.0
2018-Apr-11 16:29N 35°60' E 120°11'0 0.0
2018-Apr-11 15:46N 35°60' E 120°11'0 0.0
2018-Apr-11 15:30N 35°60' E 120°11'0 0.0
2018-Apr-11 14:53N 35°60' E 120°11'0 0.0
2018-Apr-11 14:19N 35°60' E 120°11'0 0.0
2018-Apr-11 13:54N 35°60' E 120°11'1 2.2
2018-Apr-11 13:23N 36°00' E 120°13'5 9.5
2018-Apr-11 12:53N 36°02' E 120°18'3 5.4
2018-Apr-11 12:23N 36°01' E 120°22'510.0
2018-Apr-11 11:52N 36°00' E 120°28'  
Track history (hours):
 
Tides and Currents Weather Stations Pressure Air Temp Water Temp Dewpoint Dewpoint Depression Visibility Wind Speed Wind Dir Waves Ship Positions

Emu Arrow

Last reported at 2018-Apr-20 22:26 UTC. Time now 2018-Apr-25 02:56 UTC.
Position N 35°48' E 125°02'.

Length 200 m; draft 7.8 m.

Type: Cargo ship. MMSI: 309805000.

Date/timePositionNaut miles runAvg speedWind from/ knotsBaromVisibWave heightAir tempDewpointWater temp
2018-Apr-20 22:26N 35°48' E 125°02'614.0
2018-Apr-20 21:58N 35°42' E 124°59'614.1
2018-Apr-20 21:31N 35°36' E 124°57'714.2
2018-Apr-20 21:00N 35°29' E 124°53'1114.2
2018-Apr-20 20:16N 35°19' E 124°48'414.3
2018-Apr-20 20:00N 35°16' E 124°47'714.1
2018-Apr-20 19:31N 35°10' E 124°44'714.0
2018-Apr-20 19:00N 35°03' E 124°41'10612.0
2018-Apr-20 10:13N 33°28' E 123°45'13512.5
2018-Apr-19 23:23N 31°19' E 122°60'2712.7
2018-Apr-19 21:13N 31°05' E 122°32'1 2.2
2018-Apr-19 20:38N 31°06' E 122°30'412.5
2018-Apr-19 20:19N 31°06' E 122°26'514.4
2018-Apr-19 19:57N 31°06' E 122°19'713.9
2018-Apr-19 19:29N 31°09' E 122°13'812.7
2018-Apr-19 18:52N 31°14' E 122°06'511.6
2018-Apr-19 18:24N 31°15' E 121°59'410.4
2018-Apr-19 18:00N 31°16' E 121°55'510.1
2018-Apr-19 17:30N 31°17' E 121°49'14 7.9
2018-Apr-19 15:48N 31°23' E 121°35'5 7.9
2018-Apr-19 15:08N 31°26' E 121°30'2 7.2
2018-Apr-19 14:50N 31°27' E 121°28'411.0
2018-Apr-19 14:30N 31°30' E 121°25'611.5
2018-Apr-19 14:00N 31°33' E 121°19'611.2
2018-Apr-19 13:30N 31°38' E 121°15'510.6
2018-Apr-19 13:01N 31°41' E 121°10'510.0
2018-Apr-19 12:30N 31°44' E 121°06'6 9.9
2018-Apr-19 11:54N 31°47' E 120°60'4 9.4
2018-Apr-19 11:30N 31°48' E 120°55'18 0.5
2018-Apr-17 21:35N 31°59' E 120°39'0 0.0
2018-Apr-17 21:30N 31°59' E 120°39'28 2.2
2018-Apr-17 08:45N 31°44' E 121°07'312.9
2018-Apr-17 08:29N 31°42' E 121°10'510.0
2018-Apr-17 08:00N 31°39' E 121°14'713.4
2018-Apr-17 07:30N 31°34' E 121°19'5 9.4
2018-Apr-17 07:00N 31°30' E 121°23'0 0.0
2018-Apr-17 06:29N 31°30' E 121°23'0 0.0
2018-Apr-17 05:59N 31°30' E 121°23'0 0.0
2018-Apr-17 05:26N 31°30' E 121°23'0 0.0
2018-Apr-17 04:56N 31°30' E 121°23'0 0.0
2018-Apr-17 04:26N 31°30' E 121°23'0 0.0
2018-Apr-17 03:56N 31°30' E 121°23'0 0.0
2018-Apr-17 03:26N 31°30' E 121°23'0 0.0
2018-Apr-17 02:56N 31°30' E 121°23'0 0.0
2018-Apr-17 02:26N 31°30' E 121°23'0 0.0
2018-Apr-17 01:59N 31°30' E 121°23'0 0.0
2018-Apr-17 01:29N 31°30' E 121°23'0 0.0
2018-Apr-17 01:00N 31°30' E 121°23'0 0.0
2018-Apr-17 00:29N 31°30' E 121°23'0 0.0
2018-Apr-16 23:59N 31°30' E 121°23'0 0.0
2018-Apr-16 23:26N 31°30' E 121°23'0 0.0
2018-Apr-16 22:59N 31°30' E 121°23'0 0.0
2018-Apr-16 22:23N 31°30' E 121°23'0 0.0
2018-Apr-16 21:59N 31°30' E 121°23'0 0.0
2018-Apr-16 21:23N 31°30' E 121°23'0 0.0
2018-Apr-16 20:56N 31°30' E 121°23'0 0.0
2018-Apr-16 20:26N 31°30' E 121°23'0 0.0
2018-Apr-16 19:56N 31°30' E 121°23'0 0.0
2018-Apr-16 19:26N 31°30' E 121°23'0 0.0
2018-Apr-16 18:59N 31°30' E 121°23'0 0.0
2018-Apr-16 18:26N 31°30' E 121°23'0 0.0
2018-Apr-16 17:59N 31°30' E 121°23'0 0.0
2018-Apr-16 17:26N 31°30' E 121°23'0 0.0
2018-Apr-16 16:56N 31°30' E 121°23'0 0.0
2018-Apr-16 16:26N 31°30' E 121°23'0 0.0
2018-Apr-16 15:59N 31°30' E 121°23'0 0.0
2018-Apr-16 15:26N 31°30' E 121°23'0 0.0
2018-Apr-16 14:59N 31°30' E 121°23'0 0.0
2018-Apr-16 14:26N 31°30' E 121°23'0 0.0
2018-Apr-16 13:56N 31°30' E 121°23'0 0.0
2018-Apr-16 13:26N 31°30' E 121°23'0 0.0
2018-Apr-16 12:53N 31°30' E 121°23'0 0.0
2018-Apr-16 12:14N 31°30' E 121°23'0 0.0
2018-Apr-16 11:50N 31°30' E 121°23'0 0.0
2018-Apr-16 11:26N 31°30' E 121°23'0 0.0
2018-Apr-16 10:56N 31°30' E 121°23'0 0.0
2018-Apr-16 09:50N 31°30' E 121°23'0 0.0
2018-Apr-16 08:38N 31°30' E 121°23'0 0.0
2018-Apr-16 08:29N 31°30' E 121°23'0 0.0
2018-Apr-16 07:56N 31°30' E 121°23'0 0.0
2018-Apr-16 07:20N 31°30' E 121°23'0 0.0
2018-Apr-16 06:56N 31°30' E 121°23'0 0.0
2018-Apr-16 05:44N 31°30' E 121°23'0 0.0
2018-Apr-16 05:26N 31°30' E 121°23'0 0.0
2018-Apr-16 04:56N 31°30' E 121°23'0 0.0
2018-Apr-16 03:56N 31°30' E 121°23'0 0.0
2018-Apr-16 03:26N 31°30' E 121°23'0 0.0
2018-Apr-16 02:59N 31°30' E 121°23'0 0.0
2018-Apr-16 01:59N 31°30' E 121°23'0 0.0
2018-Apr-16 01:29N 31°30' E 121°23'0 0.0
2018-Apr-16 00:56N 31°30' E 121°23'0 0.0
2018-Apr-15 23:38N 31°30' E 121°23'0 0.0
2018-Apr-15 23:26N 31°30' E 121°23'0 0.0
2018-Apr-15 22:56N 31°30' E 121°23'0 0.0
2018-Apr-15 21:35N 31°30' E 121°23'0 0.0
2018-Apr-15 21:29N 31°30' E 121°23'0 0.0
2018-Apr-15 20:56N 31°30' E 121°23'0 0.0
2018-Apr-15 20:23N 31°30' E 121°23'0 0.0
2018-Apr-15 19:59N 31°30' E 121°23'0 0.0
2018-Apr-15 19:26N 31°30' E 121°23'1 1.5
2018-Apr-15 19:00N 31°30' E 121°23'3 6.4
2018-Apr-15 18:29N 31°28' E 121°27'4 7.8
2018-Apr-15 17:59N 31°26' E 121°30'4 8.4
2018-Apr-15 17:30N 31°24' E 121°34'6 8.6
2018-Apr-15 16:49N 31°21' E 121°40'3 7.7
2018-Apr-15 16:23N 31°18' E 121°43'4 9.4
2018-Apr-15 15:56N 31°15' E 121°46'911.7
2018-Apr-15 15:12N 31°09' E 121°53'312.0
2018-Apr-15 14:58N 31°07' E 121°56'712.6
2018-Apr-15 14:25N 31°04' E 122°03'613.9
2018-Apr-15 14:00N 31°03' E 122°10'6 9.8
2018-Apr-15 13:21N 31°03' E 122°18'3 9.5
2018-Apr-15 13:00N 31°02' E 122°21'5 9.7
2018-Apr-15 12:30N 31°01' E 122°27'5 9.4
2018-Apr-15 12:00N 30°60' E 122°32'5 9.7
2018-Apr-15 11:30N 30°60' E 122°38'5 9.5
2018-Apr-15 11:00N 31°02' E 122°42'611.2
2018-Apr-15 10:30N 31°07' E 122°46'312 7.8
2018-Apr-13 18:41N 35°59' E 120°31'611.2
2018-Apr-13 18:11N 36°00' E 120°25'311.0
2018-Apr-13 17:55N 36°01' E 120°21'510.2
2018-Apr-13 17:27N 36°02' E 120°15'4 3.4
2018-Apr-13 16:17N 35°60' E 120°11'0 0.0
2018-Apr-13 15:25N 35°60' E 120°11'0 0.0
2018-Apr-13 13:52N 35°60' E 120°11'0 0.0
2018-Apr-13 13:13N 35°60' E 120°11'0 0.0
2018-Apr-13 12:58N 35°60' E 120°11'0 0.0
2018-Apr-13 11:19N 35°60' E 120°11'0 0.0
2018-Apr-13 10:25N 35°60' E 120°11'0 0.0
2018-Apr-13 09:49N 35°60' E 120°11'0 0.0
2018-Apr-13 09:28N 35°60' E 120°11'0 0.0
2018-Apr-13 08:49N 35°60' E 120°11'0 0.0
2018-Apr-13 08:16N 35°60' E 120°11'0 0.0
2018-Apr-13 07:58N 35°60' E 120°11'0 0.0
2018-Apr-13 06:56N 35°60' E 120°11'0 0.0
2018-Apr-13 06:19N 35°60' E 120°11'0 0.0
2018-Apr-13 05:07N 35°60' E 120°11'0 0.0
2018-Apr-13 04:10N 35°60' E 120°11'0 0.0
2018-Apr-13 03:52N 35°60' E 120°11'0 0.0
2018-Apr-13 03:10N 35°60' E 120°11'0 0.0
2018-Apr-13 02:22N 35°60' E 120°11'0 0.0
2018-Apr-13 01:49N 35°60' E 120°11'0 0.0
2018-Apr-13 01:13N 35°60' E 120°11'0 0.0
2018-Apr-13 00:55N 35°60' E 120°11'0 0.0
2018-Apr-12 23:10N 35°60' E 120°11'0 0.0
2018-Apr-12 22:53N 35°60' E 120°11'0 0.0
2018-Apr-12 22:16N 35°60' E 120°11'0 0.0
2018-Apr-12 21:43N 35°60' E 120°11'0 0.0
2018-Apr-12 21:19N 35°60' E 120°11'0 0.0
2018-Apr-12 20:25N 35°60' E 120°11'0 0.0
2018-Apr-12 19:49N 35°60' E 120°11'0 0.0
2018-Apr-12 19:13N 35°60' E 120°11'0 0.0
2018-Apr-12 18:55N 35°60' E 120°11'0 0.0
2018-Apr-12 18:19N 35°60' E 120°11'0 0.0
2018-Apr-12 17:13N 35°60' E 120°11'0 0.0
2018-Apr-12 16:19N 35°60' E 120°11'0 0.0
2018-Apr-12 15:19N 35°60' E 120°11'0 0.0
2018-Apr-12 14:56N 35°60' E 120°11'0 0.0
2018-Apr-12 14:16N 35°60' E 120°11'0 0.0
2018-Apr-12 13:50N 35°60' E 120°11'0 0.0
2018-Apr-12 13:13N 35°60' E 120°11'0 0.0
2018-Apr-12 12:55N 35°60' E 120°11'0 0.0
2018-Apr-12 12:22N 35°60' E 120°11'0 0.0
2018-Apr-12 11:46N 35°60' E 120°11'0 0.0
2018-Apr-12 11:25N 35°60' E 120°11'0 0.0
2018-Apr-12 10:52N 35°60' E 120°11'0 0.0
2018-Apr-12 10:16N 35°60' E 120°11'0 0.0
2018-Apr-12 09:38N 35°60' E 120°11'0 0.0
2018-Apr-12 08:46N 35°60' E 120°11'0 0.0
2018-Apr-12 08:25N 35°60' E 120°11'0 0.0
2018-Apr-12 08:00N 35°60' E 120°11'0 0.0
2018-Apr-12 07:10N 35°60' E 120°11'0 0.0
2018-Apr-12 06:55N 35°60' E 120°11'0 0.0
2018-Apr-12 05:13N 35°60' E 120°11'0 0.0
2018-Apr-12 04:55N 35°60' E 120°11'0 0.0
2018-Apr-12 04:19N 35°60' E 120°11'0 0.0
2018-Apr-12 03:58N 35°60' E 120°11'0 0.0
2018-Apr-12 02:22N 35°60' E 120°11'0 0.0
2018-Apr-12 01:43N 35°60' E 120°11'0 0.0
2018-Apr-12 01:28N 35°60' E 120°11'0 0.0
2018-Apr-12 00:49N 35°60' E 120°11'0 0.0
2018-Apr-12 00:13N 35°60' E 120°11'0 0.0
2018-Apr-11 22:16N 35°60' E 120°11'0 0.0
2018-Apr-11 21:25N 35°60' E 120°11'0 0.0
2018-Apr-11 20:40N 35°60' E 120°11'0 0.0
2018-Apr-11 19:49N 35°60' E 120°11'0 0.0
2018-Apr-11 19:25N 35°60' E 120°11'0 0.0
2018-Apr-11 18:47N 35°60' E 120°11'0 0.0
2018-Apr-11 18:28N 35°60' E 120°11'0 0.0
2018-Apr-11 17:52N 35°60' E 120°11'0 0.0
2018-Apr-11 16:45N 35°60' E 120°11'0 0.0
2018-Apr-11 16:29N 35°60' E 120°11'0 0.0
2018-Apr-11 15:46N 35°60' E 120°11'0 0.0
2018-Apr-11 15:30N 35°60' E 120°11'0 0.0
2018-Apr-11 14:53N 35°60' E 120°11'0 0.0
2018-Apr-11 14:19N 35°60' E 120°11'0 0.0
2018-Apr-11 13:54N 35°60' E 120°11'1 2.2
2018-Apr-11 13:23N 36°00' E 120°13'5 9.5
2018-Apr-11 12:53N 36°02' E 120°18'3 5.4
2018-Apr-11 12:23N 36°01' E 120°22'510.0
2018-Apr-11 11:52N 36°00' E 120°28'  

Dump ship's entire track history